createdAt,value
2022-08-14T00:02:31.080Z,3.08
2022-08-14T00:04:59.680Z,3.10
2022-08-14T00:07:28.358Z,3.10
2022-08-14T00:10:49.217Z,3.25
2022-08-14T00:12:56.743Z,3.25
2022-08-14T00:15:43.387Z,3.53
2022-08-14T00:18:30.766Z,3.15
2022-08-14T00:21:03.208Z,2.70
2022-08-14T00:23:34.459Z,4.15
2022-08-14T00:26:06.822Z,3.28
2022-08-14T00:28:37.225Z,3.38
2022-08-14T00:31:08.192Z,3.22
2022-08-14T00:33:50.533Z,3.40
2022-08-14T00:36:46.964Z,3.30
2022-08-14T00:39:17.951Z,3.28
2022-08-14T00:41:47.593Z,3.40
2022-08-14T00:44:26.562Z,3.45
2022-08-14T00:47:01.453Z,3.35
2022-08-14T00:49:43.170Z,3.45
2022-08-14T00:54:57.982Z,3.28
2022-08-14T00:57:30.312Z,3.20
2022-08-14T01:00:00.807Z,3.17
2022-08-14T01:02:31.927Z,3.28
2022-08-14T01:05:07.974Z,3.60
2022-08-14T01:07:47.286Z,3.60
2022-08-14T01:10:19.285Z,3.92
2022-08-14T01:12:49.090Z,3.60
2022-08-14T01:15:19.008Z,2.80
2022-08-14T01:18:08.741Z,3.72
2022-08-14T01:20:55.355Z,3.40
2022-08-14T01:23:25.477Z,3.70
2022-08-14T01:26:11.673Z,3.88
2022-08-14T01:28:54.399Z,3.30
2022-08-14T01:31:30.955Z,3.47
2022-08-14T01:35:17.903Z,3.30
2022-08-14T01:36:55.728Z,3.92
2022-08-14T01:39:24.372Z,3.38
2022-08-14T01:42:01.070Z,3.35
2022-08-14T01:44:34.538Z,3.60
2022-08-14T01:47:22.185Z,3.83
2022-08-14T01:49:59.612Z,3.75
2022-08-14T01:52:59.055Z,3.35
2022-08-14T01:55:33.653Z,3.42
2022-08-14T01:58:19.815Z,3.67
2022-08-14T02:00:57.348Z,3.50
2022-08-14T02:03:30.815Z,3.63
2022-08-14T02:06:03.999Z,3.55
2022-08-14T02:08:52.622Z,3.30
2022-08-14T02:11:25.338Z,3.50
2022-08-14T02:14:07.078Z,3.90
2022-08-14T02:16:42.672Z,3.70
2022-08-14T02:19:15.280Z,3.38
2022-08-14T02:21:49.101Z,3.60
2022-08-14T02:24:39.112Z,3.85
2022-08-14T02:30:02.844Z,3.50
2022-08-14T02:32:37.310Z,4.15
2022-08-14T02:35:11.716Z,3.58
2022-08-14T02:37:48.279Z,3.97
2022-08-14T02:40:32.190Z,4.10
2022-08-14T02:43:03.862Z,4.35
2022-08-14T02:45:38.522Z,3.67
2022-08-14T02:49:04.363Z,3.88
2022-08-14T02:51:09.117Z,4.00
2022-08-14T02:53:42.205Z,4.40
2022-08-14T02:56:30.257Z,3.88
2022-08-14T02:59:05.529Z,4.50
2022-08-14T03:01:50.210Z,4.00
2022-08-14T03:04:20.595Z,4.07
2022-08-14T03:07:06.726Z,4.22
2022-08-14T03:10:24.489Z,4.18
2022-08-14T03:12:32.261Z,4.20
2022-08-14T03:15:14.259Z,4.25
2022-08-14T03:17:57.047Z,3.80
2022-08-14T03:20:30.687Z,4.47
2022-08-14T03:23:03.349Z,4.10
2022-08-14T03:25:37.690Z,4.53
2022-08-14T03:28:07.385Z,4.85
2022-08-14T03:30:40.979Z,4.20
2022-08-14T03:33:11.282Z,4.20
2022-08-14T03:36:07.713Z,4.45
2022-08-14T03:39:13.038Z,4.28
2022-08-14T03:41:24.714Z,4.30
2022-08-14T03:44:01.071Z,4.45
2022-08-14T03:46:54.705Z,4.22
2022-08-14T03:49:28.456Z,4.80
2022-08-14T03:52:01.151Z,4.80
2022-08-14T03:54:30.228Z,4.78
2022-08-14T03:57:02.713Z,4.65
2022-08-14T03:59:35.268Z,5.00
2022-08-14T04:02:04.777Z,4.78
2022-08-14T04:04:54.896Z,5.05
2022-08-14T04:09:50.782Z,4.97
2022-08-14T04:12:26.368Z,4.30
2022-08-14T04:14:54.644Z,5.15
2022-08-14T04:17:24.471Z,4.93
2022-08-14T04:19:57.691Z,5.13
2022-08-14T04:22:26.005Z,4.72
2022-08-14T04:24:53.968Z,4.70
2022-08-14T04:27:23.727Z,4.47
2022-08-14T04:29:52.092Z,4.70
2022-08-14T04:33:00.161Z,4.90
2022-08-14T04:35:11.949Z,4.97
2022-08-14T04:38:07.813Z,5.15
2022-08-14T04:41:15.602Z,4.97
2022-08-14T04:43:43.687Z,4.93
2022-08-14T04:46:55.709Z,4.65
2022-08-14T04:49:08.306Z,4.65
2022-08-14T04:51:46.940Z,4.72
2022-08-14T04:54:27.642Z,5.53
2022-08-14T04:56:56.686Z,4.78
2022-08-14T04:59:25.844Z,5.45
2022-08-14T05:01:57.141Z,5.00
2022-08-14T05:06:57.780Z,4.80
2022-08-14T05:09:29.017Z,5.32
2022-08-14T05:13:01.015Z,5.20
2022-08-14T05:14:55.151Z,5.00
2022-08-14T05:17:32.041Z,4.60
2022-08-14T05:21:04.953Z,5.20
2022-08-14T05:23:05.037Z,4.63
2022-08-14T05:25:34.168Z,5.30
2022-08-14T05:28:14.090Z,5.63
2022-08-14T05:31:06.679Z,5.28
2022-08-14T05:33:36.973Z,5.40
2022-08-14T05:36:16.688Z,5.00
2022-08-14T05:38:47.890Z,5.13
2022-08-14T05:41:18.424Z,5.70
2022-08-14T05:43:48.311Z,4.88
2022-08-14T05:46:19.547Z,4.90
2022-08-14T05:48:51.955Z,5.38
2022-08-14T05:51:21.269Z,5.57
2022-08-14T05:54:01.809Z,5.40
2022-08-14T05:56:41.315Z,5.70
2022-08-14T05:59:11.401Z,5.32
2022-08-14T06:01:39.462Z,5.47
2022-08-14T06:04:10.818Z,5.88
2022-08-14T06:06:40.514Z,5.40
2022-08-14T06:09:10.869Z,6.22
2022-08-14T06:11:38.799Z,5.80
2022-08-14T06:14:21.079Z,6.45
2022-08-14T06:16:53.381Z,5.75
2022-08-14T06:19:23.254Z,5.88
2022-08-14T06:21:59.239Z,6.53
2022-08-14T06:24:30.552Z,5.90
2022-08-14T06:27:06.382Z,6.80
2022-08-14T06:29:40.944Z,5.93
2022-08-14T06:32:36.913Z,5.93
2022-08-14T06:35:10.768Z,5.82
2022-08-14T06:37:45.514Z,5.88
2022-08-14T06:40:27.965Z,6.20
2022-08-14T06:43:03.089Z,5.97
2022-08-14T06:45:33.513Z,6.18
2022-08-14T06:48:13.646Z,5.88
2022-08-14T06:50:47.118Z,6.60
2022-08-14T06:53:17.947Z,6.20
2022-08-14T06:55:58.043Z,6.55
2022-08-14T06:58:29.452Z,6.25
2022-08-14T07:01:24.841Z,6.30
2022-08-14T07:04:22.775Z,6.72
2022-08-14T07:06:54.646Z,7.00
2022-08-14T07:09:27.931Z,7.00
2022-08-14T07:11:56.519Z,7.15
2022-08-14T07:14:28.143Z,6.95
2022-08-14T07:16:56.215Z,6.43
2022-08-14T07:19:24.545Z,8.18
2022-08-14T07:21:52.914Z,7.20
2022-08-14T07:24:21.970Z,7.22
2022-08-14T07:26:56.818Z,6.65
2022-08-14T07:29:28.720Z,6.78
2022-08-14T07:31:57.226Z,6.97
2022-08-14T07:34:40.665Z,7.75
2022-08-14T07:37:09.831Z,6.88
2022-08-14T07:39:43.457Z,7.38
2022-08-14T07:42:12.245Z,7.30
2022-08-14T07:44:48.996Z,7.53
2022-08-14T07:47:19.247Z,6.90
2022-08-14T07:50:05.028Z,6.90
2022-08-14T07:52:35.231Z,6.50
2022-08-14T07:55:08.588Z,8.02
2022-08-14T07:57:38.670Z,6.70
2022-08-14T08:00:30.848Z,6.72
2022-08-14T08:03:03.290Z,6.90
2022-08-14T08:05:34.114Z,6.38
2022-08-14T08:08:03.402Z,7.25
2022-08-14T08:10:57.331Z,6.88
2022-08-14T08:13:31.422Z,8.18
2022-08-14T08:16:04.175Z,7.53
2022-08-14T08:18:34.009Z,7.00
2022-08-14T08:21:04.597Z,7.50
2022-08-14T08:26:19.390Z,8.25
2022-08-14T08:28:59.652Z,8.30
2022-08-14T08:31:32.750Z,8.55
2022-08-14T08:34:06.741Z,8.30
2022-08-14T08:36:46.613Z,8.02
2022-08-14T08:39:22.172Z,8.73
2022-08-14T08:41:53.455Z,8.93
2022-08-14T08:44:33.089Z,8.30
2022-08-14T08:47:08.334Z,8.85
2022-08-14T08:49:52.685Z,9.07
2022-08-14T08:52:32.154Z,8.60
2022-08-14T08:55:04.536Z,8.80
2022-08-14T08:57:38.085Z,9.20
2022-08-14T09:00:25.887Z,9.63
2022-08-14T09:02:57.980Z,9.38
2022-08-14T09:05:27.179Z,9.05
2022-08-14T09:07:56.663Z,9.40
2022-08-14T09:10:27.255Z,9.88
2022-08-14T09:12:57.746Z,9.63
2022-08-14T09:15:25.976Z,9.63
2022-08-14T09:18:05.269Z,9.20
2022-08-14T09:20:33.574Z,8.48
2022-08-14T09:23:05.986Z,9.27
2022-08-14T09:26:00.384Z,9.80
2022-08-14T09:28:27.573Z,9.82
2022-08-14T09:30:57.825Z,9.82
2022-08-14T09:33:34.741Z,10.13
2022-08-14T09:36:43.838Z,10.57
2022-08-14T09:39:26.949Z,9.55
2022-08-14T09:42:33.233Z,10.60
2022-08-14T09:45:16.619Z,9.27
2022-08-14T09:47:55.084Z,10.07
2022-08-14T09:50:26.951Z,9.80
2022-08-14T09:52:59.162Z,9.57
2022-08-14T09:55:41.528Z,9.80
2022-08-14T09:58:19.265Z,9.70
2022-08-14T10:00:54.261Z,10.50
2022-08-14T10:03:34.232Z,10.73
2022-08-14T10:06:14.381Z,10.27
2022-08-14T10:09:02.949Z,10.45
2022-08-14T10:11:38.182Z,11.48
2022-08-14T10:14:29.345Z,9.90
2022-08-14T10:17:07.052Z,11.10
2022-08-14T10:19:48.802Z,10.20
2022-08-14T10:23:12.613Z,10.00
2022-08-14T10:25:16.264Z,10.40
2022-08-14T10:27:56.994Z,10.55
2022-08-14T10:30:37.011Z,9.98
2022-08-14T10:33:09.919Z,9.75
2022-08-14T10:35:47.862Z,10.13
2022-08-14T10:38:28.012Z,10.65
2022-08-14T10:40:59.498Z,11.20
2022-08-14T10:43:31.601Z,10.80
2022-08-14T10:46:21.390Z,11.15
2022-08-14T10:49:04.460Z,11.37
2022-08-14T10:51:41.634Z,10.95
2022-08-14T10:54:26.155Z,11.10
2022-08-14T10:57:18.878Z,10.43
2022-08-14T11:00:20.630Z,10.80
2022-08-14T11:03:19.827Z,10.15
2022-08-14T11:05:56.219Z,11.00
2022-08-14T11:08:32.987Z,10.30
2022-08-14T11:11:05.765Z,10.80
2022-08-14T11:13:34.882Z,9.70
2022-08-14T11:16:05.857Z,10.32
2022-08-14T11:18:40.477Z,10.75
2022-08-14T11:21:10.591Z,10.30
2022-08-14T11:23:43.690Z,10.20
2022-08-14T11:26:19.602Z,11.75
2022-08-14T11:28:50.361Z,11.40
2022-08-14T11:31:24.389Z,11.05
2022-08-14T11:33:58.614Z,10.23
2022-08-14T11:37:02.467Z,10.32
2022-08-14T11:39:35.222Z,10.53
2022-08-14T11:42:58.216Z,10.50
2022-08-14T11:45:10.956Z,10.55
2022-08-14T11:47:44.122Z,11.55
2022-08-14T11:50:37.055Z,11.18
2022-08-14T11:53:08.149Z,11.05
2022-08-14T11:55:41.348Z,10.60
2022-08-14T11:58:23.690Z,11.00
2022-08-14T12:01:00.177Z,11.18
2022-08-14T12:03:51.408Z,11.32
2022-08-14T12:06:28.682Z,11.00
2022-08-14T12:09:08.575Z,10.80
2022-08-14T12:11:47.052Z,10.90
2022-08-14T12:14:30.733Z,11.82
2022-08-14T12:17:12.294Z,11.00
2022-08-14T12:19:51.581Z,10.70
2022-08-14T12:22:45.396Z,11.30
2022-08-14T12:25:24.702Z,10.27
2022-08-14T12:27:59.089Z,11.38
2022-08-14T12:30:38.046Z,10.88
2022-08-14T12:33:31.220Z,10.93
2022-08-14T12:36:08.362Z,10.80
2022-08-14T12:38:45.084Z,10.15
2022-08-14T12:41:21.727Z,10.27
2022-08-14T12:43:55.588Z,10.85
2022-08-14T12:46:27.411Z,10.40
2022-08-14T12:49:04.715Z,10.63
2022-08-14T12:51:33.844Z,10.48
2022-08-14T12:54:27.416Z,9.75
2022-08-14T12:57:20.604Z,10.00
2022-08-14T12:59:50.639Z,9.55
2022-08-14T13:02:25.252Z,9.57
2022-08-14T13:04:56.847Z,10.18
2022-08-14T13:07:32.562Z,10.00
2022-08-14T13:10:12.901Z,9.50
2022-08-14T13:13:15.747Z,9.43
2022-08-14T13:15:46.388Z,8.88
2022-08-14T13:18:17.305Z,8.45
2022-08-14T13:20:48.155Z,9.20
2022-08-14T13:23:31.943Z,8.18
2022-08-14T13:26:01.550Z,8.68
2022-08-14T13:28:41.192Z,8.90
2022-08-14T13:31:30.157Z,8.80
2022-08-14T13:34:00.480Z,9.05
2022-08-14T13:36:51.991Z,8.60
2022-08-14T13:39:21.459Z,7.88
2022-08-14T13:41:55.952Z,8.18
2022-08-14T13:44:28.004Z,8.65
2022-08-14T13:46:56.355Z,8.95
2022-08-14T13:49:24.944Z,7.13
2022-08-14T13:51:59.301Z,8.48
2022-08-14T13:54:31.606Z,8.23
2022-08-14T13:57:03.987Z,7.32
2022-08-14T13:59:37.259Z,7.68
2022-08-14T14:02:08.509Z,7.85
2022-08-14T14:04:46.350Z,7.20
2022-08-14T14:07:23.586Z,7.40
2022-08-14T14:09:56.516Z,7.18
2022-08-14T14:12:38.550Z,7.32
2022-08-14T14:15:12.605Z,7.00
2022-08-14T14:17:44.458Z,7.32
2022-08-14T14:20:35.854Z,7.10
2022-08-14T14:23:12.154Z,6.80
2022-08-14T14:25:49.207Z,7.18
2022-08-14T14:28:32.146Z,6.60
2022-08-14T14:31:06.150Z,6.85
2022-08-14T14:33:52.367Z,5.82
2022-08-14T14:36:27.997Z,5.10
2022-08-14T14:39:01.670Z,5.20
2022-08-14T14:41:37.961Z,4.78
2022-08-14T14:44:09.585Z,5.15
2022-08-14T14:46:53.120Z,5.70
2022-08-14T14:49:51.261Z,4.97
2022-08-14T14:52:37.073Z,4.32
2022-08-14T14:55:17.054Z,4.32
2022-08-14T14:57:57.503Z,4.88
2022-08-14T15:06:47.843Z,4.43
2022-08-14T15:09:36.595Z,4.63
2022-08-14T15:12:55.574Z,4.88
2022-08-14T15:15:18.638Z,5.07
2022-08-14T15:17:50.462Z,5.28
2022-08-14T15:20:48.398Z,4.72
2022-08-14T15:23:43.677Z,5.07
2022-08-14T15:26:23.945Z,4.72
2022-08-14T15:29:09.343Z,3.70
2022-08-14T15:31:38.750Z,3.85
2022-08-14T15:34:44.380Z,3.53
2022-08-14T15:37:24.456Z,3.20
2022-08-14T15:40:22.336Z,3.50
2022-08-14T15:43:46.745Z,3.17
2022-08-14T15:46:43.129Z,3.50
2022-08-14T15:49:36.657Z,3.03
2022-08-14T15:52:35.425Z,3.17
2022-08-14T15:55:32.802Z,3.15
2022-08-14T15:58:14.269Z,3.42
2022-08-14T16:01:19.360Z,3.47
2022-08-14T16:04:27.749Z,4.05
2022-08-14T16:07:09.957Z,4.57
2022-08-14T16:10:11.887Z,4.90
2022-08-14T16:12:47.419Z,4.97
2022-08-14T16:15:33.070Z,4.80
2022-08-14T16:18:20.502Z,4.05
2022-08-14T16:21:00.641Z,4.22
2022-08-14T16:23:35.926Z,4.00
2022-08-14T16:26:19.414Z,5.10
2022-08-14T16:32:32.798Z,5.82
2022-08-14T16:34:59.100Z,5.20
2022-08-14T16:37:45.632Z,5.13
2022-08-14T16:40:38.995Z,5.70
2022-08-14T16:43:21.021Z,6.13
2022-08-14T16:45:56.329Z,6.20
2022-08-14T16:48:55.555Z,6.07
2022-08-14T16:51:20.779Z,6.00
2022-08-14T16:53:53.870Z,6.78
2022-08-14T16:56:39.653Z,6.75
2022-08-14T16:59:17.068Z,5.45
2022-08-14T17:02:05.095Z,5.90
2022-08-14T17:05:16.308Z,6.25
2022-08-14T17:08:33.028Z,7.28
2022-08-14T17:11:23.016Z,6.18
2022-08-14T17:14:01.335Z,6.10
2022-08-14T17:20:30.996Z,5.70
2022-08-14T17:23:11.155Z,6.25
2022-08-14T17:28:51.535Z,6.50
2022-08-14T17:34:57.757Z,6.32
2022-08-14T17:37:46.011Z,6.18
2022-08-14T17:41:07.405Z,6.97
2022-08-14T17:43:43.113Z,6.57
2022-08-14T17:46:55.225Z,6.30
2022-08-14T17:49:35.586Z,6.95
2022-08-14T17:52:33.960Z,7.15
2022-08-14T17:56:02.784Z,6.65
2022-08-14T17:58:42.041Z,6.40
2022-08-14T18:01:14.085Z,7.22
2022-08-14T18:03:53.721Z,7.18
2022-08-14T18:07:06.118Z,7.65
2022-08-14T18:10:52.118Z,7.45
2022-08-14T18:13:49.866Z,7.20
2022-08-14T18:16:26.392Z,8.40
2022-08-14T18:19:14.212Z,7.28
2022-08-14T18:21:57.519Z,8.63
2022-08-14T18:25:02.648Z,33.90
2022-08-14T18:27:51.672Z,13.32
2022-08-14T18:30:40.379Z,43.35
2022-08-14T18:33:34.170Z,34.70
2022-08-14T18:36:47.516Z,14.02
2022-08-14T18:40:01.459Z,25.70
2022-08-14T18:43:08.651Z,19.17
2022-08-14T18:46:06.079Z,9.70
2022-08-14T18:49:26.591Z,10.10
2022-08-14T18:52:18.706Z,9.52
2022-08-14T18:55:08.301Z,9.52
2022-08-14T18:58:01.019Z,9.15
2022-08-14T19:00:55.360Z,9.10
2022-08-14T19:03:46.279Z,19.95
2022-08-14T19:06:16.737Z,12.57
2022-08-14T19:08:51.999Z,18.50
2022-08-14T19:15:05.871Z,18.42
2022-08-14T19:18:14.839Z,15.32
2022-08-14T19:21:03.431Z,11.55
2022-08-14T19:24:27.448Z,10.95
2022-08-14T19:30:20.325Z,8.70
2022-08-14T19:35:59.878Z,8.93
2022-08-14T19:38:54.873Z,9.15
2022-08-14T19:41:35.467Z,9.63
2022-08-14T19:47:41.532Z,8.85
2022-08-14T19:50:38.028Z,8.88
2022-08-14T19:53:18.758Z,11.27
2022-08-14T19:56:11.187Z,9.00
2022-08-14T19:59:09.971Z,10.07
2022-08-14T20:01:51.392Z,10.93
2022-08-14T20:04:47.494Z,12.88
2022-08-14T20:07:59.779Z,10.32
2022-08-14T20:11:06.554Z,10.10
2022-08-14T20:14:29.730Z,9.63
2022-08-14T20:17:27.645Z,11.32
2022-08-14T20:20:33.418Z,9.15
2022-08-14T20:23:22.947Z,9.10
2022-08-14T20:26:10.572Z,9.20
2022-08-14T20:28:51.355Z,9.13
2022-08-14T20:31:37.193Z,8.32
2022-08-14T20:34:24.907Z,8.63
2022-08-14T20:37:22.454Z,8.82
2022-08-14T20:40:24.515Z,8.35
2022-08-14T20:43:17.034Z,8.23
2022-08-14T20:45:57.892Z,8.25
2022-08-14T20:49:10.699Z,8.43
2022-08-14T20:55:09.837Z,8.73
2022-08-14T20:57:48.565Z,8.95
2022-08-14T21:00:52.122Z,8.45
2022-08-14T21:04:05.170Z,8.13
2022-08-14T21:07:25.469Z,8.55
2022-08-14T21:10:05.248Z,8.60
2022-08-14T21:14:08.944Z,7.90
2022-08-14T21:15:59.917Z,7.63
2022-08-14T21:18:47.588Z,8.38
2022-08-14T21:21:40.531Z,8.13
2022-08-14T21:25:02.833Z,8.48
2022-08-14T21:27:42.057Z,8.43
2022-08-14T21:30:58.029Z,8.77
2022-08-14T21:33:37.978Z,8.82
2022-08-14T21:36:30.934Z,9.02
2022-08-14T21:39:34.844Z,8.35
2022-08-14T21:42:14.411Z,8.73
2022-08-14T21:45:15.532Z,7.40
2022-08-14T21:48:10.681Z,9.07
2022-08-14T21:51:00.282Z,8.07
2022-08-14T21:54:04.205Z,8.85
2022-08-14T21:56:41.416Z,8.55
2022-08-14T22:02:38.722Z,8.88
2022-08-14T22:05:23.657Z,8.35
2022-08-14T22:07:59.648Z,9.13
2022-08-14T22:10:59.218Z,7.95
2022-08-14T22:13:46.692Z,8.80
2022-08-14T22:17:00.111Z,9.13
2022-08-14T22:19:43.307Z,8.88
2022-08-14T22:22:45.570Z,8.90
2022-08-14T22:25:33.245Z,8.68
2022-08-14T22:28:33.053Z,8.63
2022-08-14T22:31:18.366Z,8.95
2022-08-14T22:34:06.605Z,9.07
2022-08-14T22:36:51.231Z,9.07
2022-08-14T22:40:17.105Z,8.50
2022-08-14T22:45:07.388Z,8.45
2022-08-14T22:47:46.723Z,9.20
2022-08-14T22:50:31.016Z,9.65
2022-08-14T22:53:11.208Z,9.02
2022-08-14T22:55:55.590Z,9.02
2022-08-14T22:58:35.382Z,9.37
2022-08-14T23:01:22.681Z,9.35
2022-08-14T23:04:04.519Z,8.85
2022-08-14T23:07:03.027Z,10.45
2022-08-14T23:09:55.924Z,9.57
2022-08-14T23:12:34.989Z,8.57
2022-08-14T23:15:19.775Z,9.10
2022-08-14T23:17:54.673Z,9.18
2022-08-14T23:20:29.455Z,8.98
2022-08-14T23:23:22.646Z,9.73
2022-08-14T23:26:47.670Z,9.85
2022-08-14T23:29:24.625Z,9.65
2022-08-14T23:32:15.483Z,9.23
2022-08-14T23:35:11.535Z,9.50
2022-08-14T23:41:23.821Z,9.63
2022-08-14T23:44:13.654Z,9.23
2022-08-14T23:46:52.738Z,9.60
2022-08-14T23:49:55.378Z,9.80
2022-08-14T23:53:07.454Z,9.95
2022-08-14T23:55:42.060Z,9.77
2022-08-14T23:58:31.514Z,10.10
